createdAt,value
2016-04-26T06:21:53.784Z,19168
2016-04-26T06:22:21.255Z,18624
2016-04-26T06:22:34.458Z,18368
2016-04-26T06:22:48.821Z,18336
2016-04-26T06:23:02.461Z,18528
2016-04-26T06:23:15.821Z,19296
2016-04-26T06:23:29.477Z,20832
2016-04-26T06:23:42.836Z,21920
2016-04-26T06:23:56.152Z,23104
2016-04-26T06:24:09.511Z,23360
2016-04-26T06:24:22.839Z,22752
2016-04-26T06:24:37.199Z,21408
2016-04-26T06:24:50.545Z,20192
2016-04-26T06:25:04.482Z,19168
2016-04-26T06:25:17.826Z,18624
2016-04-26T06:25:45.529Z,19392
2016-04-26T06:25:59.173Z,20064
2016-04-26T06:26:12.532Z,21184
2016-04-26T06:26:25.860Z,21920
2016-04-26T06:26:39.219Z,21728
2016-04-26T06:26:52.565Z,20960
2016-04-26T06:27:05.878Z,19744
2016-04-26T06:27:19.503Z,18464
2016-04-26T06:27:32.831Z,17464
2016-04-26T06:27:46.268Z,17120
2016-04-26T06:27:59.412Z,17240
2016-04-26T06:28:12.787Z,17440
2016-04-26T06:28:26.099Z,17304
2016-04-26T06:28:39.428Z,17476
2016-04-26T06:28:59.509Z,18720
2016-04-26T06:29:12.696Z,19616
2016-04-26T06:29:25.915Z,20352
2016-04-26T06:29:39.274Z,20960
2016-04-26T06:29:52.590Z,21504
2016-04-26T06:30:05.934Z,22080
2016-04-26T06:30:19.246Z,22624
2016-04-26T06:30:32.824Z,23200
2016-04-26T06:30:46.184Z,24608
2016-04-26T06:31:13.671Z,24992
2016-04-26T06:31:27.015Z,24672
2016-04-26T06:31:40.562Z,23648
2016-04-26T06:31:53.892Z,22400
2016-04-26T06:32:07.704Z,20992
2016-04-26T06:32:21.095Z,20192
2016-04-26T06:32:37.954Z,20256
2016-04-26T06:32:52.863Z,20640
2016-04-26T06:33:07.035Z,20800
2016-04-26T06:33:20.395Z,20800
2016-04-26T06:33:33.738Z,20896
2016-04-26T06:33:47.098Z,20928
2016-04-26T06:34:00.459Z,21088
2016-04-26T06:34:27.928Z,21888
2016-04-26T06:34:44.459Z,21920
2016-04-26T06:34:57.728Z,22336
2016-04-26T06:35:25.212Z,23168
2016-04-26T06:35:52.731Z,22560
2016-04-26T06:36:06.075Z,22528
2016-04-26T06:36:19.434Z,22688
2016-04-26T06:36:32.778Z,22944
2016-04-26T06:36:46.090Z,23296
2016-04-26T06:36:59.452Z,23936
2016-04-26T06:37:12.623Z,24384
2016-04-26T06:37:25.998Z,24320
2016-04-26T06:37:39.342Z,23776
2016-04-26T06:37:52.673Z,23072
2016-04-26T06:38:06.001Z,22432
2016-04-26T06:38:19.345Z,21696
2016-04-26T06:38:32.705Z,20864
2016-04-26T06:38:46.017Z,20480
2016-04-26T06:38:59.378Z,20384
2016-04-26T06:39:12.691Z,20384
2016-04-26T06:39:26.035Z,20320
2016-04-26T06:39:39.378Z,20096
2016-04-26T06:39:52.742Z,19840
2016-04-26T06:40:06.070Z,19840
2016-04-26T06:40:19.414Z,20384
2016-04-26T06:41:00.947Z,24128
2016-04-26T06:41:14.259Z,25120
2016-04-26T06:41:27.806Z,27232
2016-04-26T06:41:41.603Z,28352
2016-04-26T06:41:54.949Z,28416
2016-04-26T06:42:08.590Z,28576
2016-04-26T06:42:21.933Z,29152
2016-04-26T06:42:35.308Z,29376
2016-04-26T06:42:48.636Z,28864
2016-04-26T06:43:01.984Z,28160
2016-04-26T06:43:15.312Z,27296
2016-04-26T06:43:29.250Z,26272
2016-04-26T06:44:00.392Z,23936
2016-04-26T06:44:13.721Z,22944
2016-04-26T06:44:27.064Z,22176
2016-04-26T06:44:40.392Z,21696
2016-04-26T06:44:53.755Z,21216
2016-04-26T06:45:07.099Z,21184
2016-04-26T06:45:20.427Z,21056
2016-04-26T06:45:33.974Z,20800
2016-04-26T06:45:47.333Z,21120
2016-04-26T06:46:00.680Z,21248
2016-04-26T06:46:13.977Z,21120
2016-04-26T06:46:27.305Z,20992
2016-04-26T06:46:40.664Z,21344
2016-04-26T06:46:54.010Z,21952
2016-04-26T06:47:10.900Z,22240
2016-04-26T06:47:24.150Z,22080
2016-04-26T06:47:39.166Z,22240
2016-04-26T06:47:54.357Z,21888
2016-04-26T06:48:07.341Z,21728
2016-04-26T06:48:22.857Z,21952
2016-04-26T06:48:36.200Z,22048
2016-04-26T06:48:49.544Z,22176
2016-04-26T06:49:02.890Z,22560
2016-04-26T06:49:16.218Z,22720
2016-04-26T06:49:29.562Z,22944
2016-04-26T06:49:42.890Z,23584
2016-04-26T06:49:56.205Z,24384
2016-04-26T06:50:09.549Z,25216
2016-04-26T06:50:22.877Z,26176
2016-04-26T06:50:36.221Z,27328
2016-04-26T06:50:49.565Z,28480
2016-04-26T06:51:02.911Z,28640
2016-04-26T06:51:16.286Z,27968
2016-04-26T06:51:29.615Z,28096
2016-04-26T06:51:42.911Z,26880
2016-04-26T06:51:56.273Z,24864
2016-04-26T06:52:09.445Z,24544
2016-04-26T06:52:22.820Z,23936
2016-04-26T06:52:36.132Z,23712
2016-04-26T06:52:49.460Z,23776
2016-04-26T06:53:02.807Z,24320
2016-04-26T06:53:16.135Z,24864
2016-04-26T06:53:29.479Z,24960
2016-04-26T06:53:42.823Z,24800
2016-04-26T06:53:56.154Z,24832
2016-04-26T06:54:09.482Z,24960
2016-04-26T06:54:22.826Z,25088
2016-04-26T06:54:36.154Z,25024
2016-04-26T06:54:49.498Z,24736
2016-04-26T06:55:03.157Z,23744
2016-04-26T06:55:16.485Z,23008
2016-04-26T06:55:32.829Z,23168
2016-04-26T06:55:46.672Z,23616
2016-04-26T06:56:00.206Z,25760
2016-04-26T06:56:13.659Z,29088
2016-04-26T06:56:27.206Z,32448
2016-04-26T06:56:40.534Z,33600
2016-04-26T06:56:54.193Z,32960
2016-04-26T06:57:07.834Z,31456
2016-04-26T06:57:35.318Z,29376
2016-04-26T06:57:48.662Z,29408
2016-04-26T06:58:02.492Z,29824
2016-04-26T06:58:20.961Z,29888
2016-04-26T06:58:34.320Z,29728
2016-04-26T06:58:47.664Z,29824
2016-04-26T06:59:01.011Z,29568
2016-04-26T06:59:14.557Z,29216
2016-04-26T06:59:28.198Z,28896
2016-04-26T06:59:41.542Z,27968
2016-04-26T06:59:54.873Z,27424
2016-04-26T07:00:08.920Z,27488
2016-04-26T07:00:22.998Z,27360
2016-04-26T07:00:39.904Z,26912
2016-04-26T07:00:53.859Z,26496
2016-04-26T07:01:08.609Z,26144
2016-04-26T07:01:22.234Z,25728
2016-04-26T07:02:33.003Z,25408
2016-04-26T07:02:48.456Z,25120
2016-04-26T07:03:02.553Z,24672
2016-04-26T07:03:16.522Z,24352
2016-04-26T07:03:29.678Z,23936
2016-04-26T07:03:46.053Z,23840
2016-04-26T07:04:01.212Z,23936
2016-04-26T07:04:17.556Z,24032
2016-04-26T07:04:45.353Z,24704
2016-04-26T07:05:01.481Z,25376
2016-04-26T07:05:57.577Z,28480
2016-04-26T07:06:11.437Z,27680
2016-04-26T07:06:25.984Z,25984
2016-04-26T07:06:39.312Z,24800
2016-04-26T07:06:53.470Z,24288
2016-04-26T07:07:07.111Z,24032
2016-04-26T07:07:35.501Z,22880
2016-04-26T07:07:48.845Z,22688
2016-04-26T07:08:02.207Z,22976
2016-04-26T07:08:16.176Z,23584
2016-04-26T07:08:29.520Z,24192
2016-04-26T07:09:00.007Z,24480
2016-04-26T07:09:14.460Z,24640
2016-04-26T07:09:28.007Z,24288
2016-04-26T07:09:57.353Z,23328
2016-04-26T07:10:59.559Z,26976
2016-04-26T07:12:01.358Z,26976
2016-04-26T07:12:14.905Z,26464
2016-04-26T07:12:28.249Z,27136
2016-04-26T07:12:42.233Z,28640
2016-04-26T07:12:55.752Z,29376
2016-04-26T07:13:10.080Z,29888
2016-04-26T07:13:24.533Z,29600
2016-04-26T07:13:42.705Z,27840
2016-04-26T07:14:28.208Z,27584
2016-04-26T07:16:00.963Z,24704
